Weather reports worldwide

Advertisment
Malaga,Puerto, Spain (8479): temperature & dewpoint: 17.04.2019 19:00:00 - 23.04.2019 19:00:00 (CEST)Malaga,Puerto, Spain (8479): wind speed & gusts: 17.04.2019 19:00:00 - 23.04.2019 19:00:00 (CEST)Malaga,Puerto, Spain (8479): wind direction: 17.04.2019 19:00:00 - 23.04.2019 19:00:00 (CEST)Malaga,Puerto, Spain (8479): reduced air pressure: 17.04.2019 19:00:00 - 23.04.2019 19:00:00 (CEST)Malaga,Puerto, Spain (8479): precipitation: 17.04.2019 19:00:00 - 23.04.2019 19:00:00 (CEST)
Date & Time tt [°C] td [°C] ff [km/h] ff [kn] fx [km/h] fx [kn] dd ppp [hPa] rr [mm]
23.04.2019 19:00:00 - - - - - - - - -
23.04.2019 18:00:00 19,8 1,3 9 5 37 20 W 1003,6 0,0
23.04.2019 17:00:00 17,3 5,3 21 11 33 18 SSW 1003,7 0,0
23.04.2019 16:00:00 15,8 6,0 14 7 35 19 S 1004,1 0,0
23.04.2019 15:00:00 15,8 6,3 22 12 32 17 SSW 1004,1 0,0
23.04.2019 14:00:00 16,3 4,1 9 5 28 15 NNW 1004,1 -
23.04.2019 13:00:00 14,5 5,1 10 5 22 12 NW 1004,5 0,0
23.04.2019 12:00:00 12,8 7,1 13 7 27 15 NW 1004,5 0,6
23.04.2019 11:00:00 11,8 7,5 18 10 38 21 NW 1003,6 1,3
23.04.2019 10:00:00 14,1 10,7 6 4 26 14 N 1002,0 2,7
23.04.2019 09:00:00 16,0 9,9 12 6 19 10 SSW 1001,4 0,9
23.04.2019 08:00:00 16,0 10,5 9 5 23 12 S 1001,1 -
23.04.2019 07:00:00 16,4 11,1 5 3 26 14 ESE 1000,5 0,0
23.04.2019 06:00:00 16,4 9,8 1 1 7 4 ENE 1001,2 0,0
23.04.2019 05:00:00 16,0 9,7 3 2 19 10 NNW 1001,6 0,0
23.04.2019 04:00:00 16,2 8,9 3 1 9 5 NNE 1002,2 0,0
23.04.2019 03:00:00 16,4 8,9 3 2 8 5 NE 1002,7 0,0
23.04.2019 02:00:00 16,9 8,9 3 2 10 5 ESE 1002,9 -
23.04.2019 01:00:00 17,8 8,9 3 1 21 11 W 1003,3 0,0
23.04.2019 00:00:00 17,7 10,1 3 2 11 6 S 1003,2 0,0
22.04.2019 23:00:00 18,1 10,5 5 3 18 10 SSW 1003,1 0,0
22.04.2019 22:00:00 19,0 8,4 11 6 25 14 SW 1002,6 0,0
22.04.2019 21:00:00 22,1 2,8 11 6 35 19 W 1001,8 0,0
22.04.2019 20:00:00 23,5 2,4 12 6 34 18 W 1001,0 -
22.04.2019 19:00:00 23,6 4,6 10 6 27 14 NW 1000,7 0,0
22.04.2019 18:00:00 24,0 3,3 14 7 34 18 NW 1000,7 0,0
22.04.2019 17:00:00 23,6 4,6 16 9 34 19 WNW 1001,3 0,0
22.04.2019 16:00:00 24,4 6,2 10 6 34 18 WNW 1002,1 0,0
22.04.2019 15:00:00 22,5 5,0 12 6 36 19 NW 1002,7 0,0
22.04.2019 14:00:00 22,1 5,9 14 7 35 19 W 1003,5 -
22.04.2019 13:00:00 20,8 5,6 16 8 40 22 NW 1004,3 0,0
22.04.2019 12:00:00 18,9 6,4 16 9 37 20 NW 1004,9 0,0
22.04.2019 11:00:00 17,5 6,7 8 5 25 14 W 1005,0 0,0
22.04.2019 10:00:00 16,0 6,4 14 7 28 15 W 1005,1 0,0
22.04.2019 09:00:00 15,7 7,0 7 4 22 12 W 1004,7 0,0
22.04.2019 08:00:00 14,9 7,0 8 5 26 14 WNW 1004,7 -
22.04.2019 07:00:00 15,0 7,1 12 6 30 16 WNW 1003,8 0,0
22.04.2019 06:00:00 14,2 7,5 13 7 22 12 WNW 1004,2 0,0
22.04.2019 05:00:00 14,4 7,7 13 7 43 23 W 1004,5 0,0
22.04.2019 04:00:00 14,5 8,2 9 5 21 11 W 1004,5 0,0
22.04.2019 03:00:00 14,9 8,6 11 6 22 12 W 1005,0 0,0
22.04.2019 02:00:00 15,3 9,4 10 5 21 11 WSW 1005,2 -
22.04.2019 01:00:00 15,8 10,3 6 3 17 9 W 1006,0 0,0
22.04.2019 00:00:00 15,6 11,8 9 5 16 9 W 1006,6 0,0
21.04.2019 23:00:00 15,6 11,6 7 4 12 6 W 1006,9 0,0
21.04.2019 22:00:00 15,7 12,3 5 3 9 5 W 1006,8 0,0
21.04.2019 21:00:00 15,5 11,9 1 1 5 3 SSW 1006,7 0,0
21.04.2019 20:00:00 15,2 11,8 2 1 11 6 S 1007,0 -
21.04.2019 19:00:00 14,8 11,4 7 4 13 7 SSW 1007,0 0,7
21.04.2019 18:00:00 15,5 11,5 11 6 17 9 E 1006,7 0,5
21.04.2019 17:00:00 16,8 12,4 6 4 16 8 E 1007,0 1,2
21.04.2019 16:00:00 17,2 11,0 6 4 29 16 S 1007,0 0,0
21.04.2019 15:00:00 17,6 11,4 18 10 28 15 S 1006,8 0,0
21.04.2019 14:00:00 18,9 10,5 10 5 16 9 S 1007,3 -
21.04.2019 13:00:00 17,6 9,3 7 4 11 6 E 1008,0 0,0
21.04.2019 12:00:00 17,2 10,1 1 1 12 6 SSW 1008,6 0,0
21.04.2019 11:00:00 15,3 9,4 9 5 16 9 W 1008,8 0,0
21.04.2019 10:00:00 14,9 9,9 9 5 19 10 W 1008,8 0,0
21.04.2019 09:00:00 14,6 9,6 9 5 22 12 WNW 1008,8 0,0
21.04.2019 08:00:00 13,9 9,4 10 6 18 10 W 1008,7 -
21.04.2019 07:00:00 13,6 9,5 8 5 17 9 W 1009,1 0,0
21.04.2019 06:00:00 13,8 9,8 8 4 22 12 W 1009,4 0,0
21.04.2019 05:00:00 14,3 9,7 11 6 19 11 W 1009,9 0,0
21.04.2019 04:00:00 14,1 8,5 7 4 17 9 NNW 1010,6 0,0
21.04.2019 03:00:00 14,1 8,7 7 4 17 9 NW 1011,7 0,0
21.04.2019 02:00:00 14,1 9,5 9 5 16 9 NW 1012,5 -
21.04.2019 01:00:00 14,7 10,3 4 2 11 6 NNW 1013,1 0,0
21.04.2019 00:00:00 15,0 10,2 3 2 10 5 N 1013,5 0,0
20.04.2019 23:00:00 15,3 10,3 5 3 12 6 ENE 1013,6 0,0
20.04.2019 22:00:00 15,7 11,1 8 5 18 10 ESE 1013,2 0,0
20.04.2019 21:00:00 15,7 11,5 9 5 20 11 ESE 1012,6 0,0
20.04.2019 20:00:00 15,7 11,5 13 7 21 11 ESE 1012,0 -
20.04.2019 19:00:00 16,1 10,0 11 6 18 10 ESE 1011,6 0,0
20.04.2019 18:00:00 16,4 10,0 8 5 19 10 SE 1011,2 0,0
20.04.2019 17:00:00 16,4 8,9 9 5 16 9 SE 1011,1 0,0
20.04.2019 16:00:00 17,3 10,2 12 6 19 10 S 1011,2 0,0
20.04.2019 15:00:00 16,3 10,2 12 7 16 9 SE 1011,3 0,0
20.04.2019 14:00:00 16,2 8,7 9 5 14 8 SE 1011,2 -
20.04.2019 13:00:00 17,7 8,6 4 2 15 8 SE 1011,2 0,0
20.04.2019 12:00:00 17,7 8,8 5 3 12 6 SSW 1011,6 0,0
20.04.2019 11:00:00 15,9 9,1 5 3 17 9 W 1011,8 0,0
20.04.2019 10:00:00 14,7 8,9 4 2 15 8 W 1012,1 0,0
20.04.2019 09:00:00 13,5 8,1 7 4 18 10 W 1012,0 0,0
20.04.2019 08:00:00 13,2 7,9 8 5 19 10 WNW 1011,3 -
20.04.2019 07:00:00 13,1 7,6 8 4 16 8 W 1011,2 0,0
20.04.2019 06:00:00 13,5 7,5 8 4 18 10 WNW 1011,7 0,0
20.04.2019 05:00:00 13,3 7,1 7 4 13 7 NW 1012,7 0,0
20.04.2019 04:00:00 13,2 7,2 6 4 16 9 NNW 1013,4 0,0
20.04.2019 03:00:00 13,4 7,4 7 4 13 7 NNW 1014,1 0,0
20.04.2019 02:00:00 14,3 8,0 1 1 13 7 S 1014,8 -
20.04.2019 01:00:00 14,3 7,8 6 4 13 7 NNW 1015,4 0,0
20.04.2019 00:00:00 14,7 8,0 6 3 13 7 N 1015,6 0,0
19.04.2019 23:00:00 15,5 8,7 4 2 10 5 NNW 1015,7 0,0
19.04.2019 22:00:00 15,6 9,1 0 0 5 3 SSE 1015,4 0,0
19.04.2019 21:00:00 16,1 9,3 5 3 10 5 SE 1015,0 0,0
19.04.2019 20:00:00 16,3 9,0 6 3 12 7 ESE 1014,4 -
19.04.2019 19:00:00 17,1 9,0 6 3 12 7 ESE 1014,0 0,0
19.04.2019 18:00:00 16,7 6,8 8 4 11 6 ESE 1013,6 0,0
19.04.2019 17:00:00 19,1 8,7 7 4 15 8 SSE 1013,5 0,0
19.04.2019 16:00:00 17,7 8,8 13 7 19 10 S 1013,8 0,0
19.04.2019 15:00:00 18,1 7,2 10 5 16 9 S 1013,8 0,0
19.04.2019 14:00:00 - - - - - - - - -
19.04.2019 13:00:00 - - - - - - - - -
19.04.2019 12:00:00 - - - - - - - - -
19.04.2019 11:00:00 - - - - - - - - -
19.04.2019 10:00:00 - - - - - - - - -
19.04.2019 09:00:00 - - - - - - - - -
19.04.2019 08:00:00 - - - - - - - - -
19.04.2019 07:00:00 - - - - - - - - -
19.04.2019 06:00:00 - - - - - - - - -
19.04.2019 05:00:00 - - - - - - - - -
19.04.2019 04:00:00 - - - - - - - - -
19.04.2019 03:00:00 - - - - - - - - -
19.04.2019 02:00:00 - - - - - - - - -
19.04.2019 01:00:00 - - - - - - - - -
19.04.2019 00:00:00 - - - - - - - - -
18.04.2019 23:00:00 - - - - - - - - -
18.04.2019 22:00:00 - - - - - - - - -
18.04.2019 21:00:00 - - - - - - - - -
18.04.2019 20:00:00 - - - - - - - - -
18.04.2019 19:00:00 17,0 9,2 6 4 - - S 1012,8 -
18.04.2019 18:00:00 - - - - - - - - -
18.04.2019 17:00:00 - - - - - - - - -
18.04.2019 16:00:00 - - - - - - - - -
18.04.2019 15:00:00 - - - - - - - - -
18.04.2019 14:00:00 - - - - - - - - -
18.04.2019 13:00:00 - - - - - - - - -
18.04.2019 12:00:00 - - - - - - - - -
18.04.2019 11:00:00 - - - - - - - - -
18.04.2019 10:00:00 - - - - - - - - -
18.04.2019 09:00:00 - - - - - - - - -
18.04.2019 08:00:00 - - - - - - - - -
18.04.2019 07:00:00 - - - - - - - - -
18.04.2019 06:00:00 - - - - - - - - -
18.04.2019 05:00:00 - - - - - - - - -
18.04.2019 04:00:00 - - - - - - - - -
18.04.2019 03:00:00 - - - - - - - - -
18.04.2019 02:00:00 - - - - - - - - -
18.04.2019 01:00:00 - - - - - - - - -
18.04.2019 00:00:00 - - - - - - - - -
17.04.2019 23:00:00 - - - - - - - - -
17.04.2019 22:00:00 - - - - - - - - -
17.04.2019 21:00:00 - - - - - - - - -
17.04.2019 20:00:00 - - - - - - - - -
17.04.2019 19:00:00 - - - - - - - - -

tt = temperature
td = dewpoint
ff = wind speed
fx = gusts
dd = wind direction
ppp = reduced air pressure
rr = precipitation

Next stations